Terminal Aerodrome Forecast
Issued by NWS Cleveland, OH

Home | Current Version | Previous Version | Text Only | Print | Product List | Glossary On
Versions: 1 2 3 4 5 6 7 8 9 10 11 12 13 14 15 16 17 18 19 20
000
FTUS41 KCLE 010500
TAFYNG
TAF
KYNG 010523Z 0106/0206 02007KT 5SM -RA BR SCT006 OVC035
      TEMPO 0106/0110 6SM -RA BR BKN006 OVC015
     FM011000 36011KT 3SM -RA BR BKN005 OVC012
     FM011500 36014G22KT 4SM -RASN BR OVC010
     FM020000 34011KT 5SM -SHSN OVC015=

USA.gov is the U.S. government's official web portal to all federal, state and local government web resources and services.